Thunderstorms From: 21-05-2018 15:00 Until: 22-05-2018 15:00 warning for: Thunderstorms Level: Yellow info button

Although rather usual in this region, locally or potentially dangerous phenomena are expected. (such as local winds, summer thunderstorms, rising streams or high waves) Be aware and pay attention to the latest weather updates, especially if you carry out activities exposed to weather or close to a stream or shoreline. 


Meteo18 Weather Cam more information Meteo18 Weather Cam


warning for Thunderstorms more information blitzortung!


Rain radar more information rain snow radar


Visit our other weather sites:

Template documentation
and downloads

And another site



Weather Underground History page Text

Daily Summary for January 22, 2017 Units:  Metric    English   Both
« Previous Day
Next Day »
Daily Weekly Monthly Yearly Custom
  High: Low: Average:
Temperature: -17.8 °C -20.8 °C -18.1 °C
Dew Point: -17.8 °C -21.6 °C -19.9 °C
Humidity: Humidity % 55 % 79 %
Wind Speed: 0 km/h 0 km/h 3.9 km/h
Wind Gust: 0 km/h - -
Wind:- - South
Pressure: 0 hPa 34645.6 hPa -
Precipitation: 0 mm    
Historical Graphs
 
 
Tabular Data for January 22, 2017
Time Temperature Dew Point Pressure Wind Wind Speed Wind Gust Humidity Rainfall Rate (Hourly)
-17.8 °C -17.8 °C 0 hPa Calm     Humidity % 0 mm
00:02 -19.1 °C -20.1 °C 34740.4 hPa NW 2.6 km/h   87 % 0 mm
00:07 -19 °C -20.1 °C 34740.4 hPa North 5.1 km/h 5.1 km/h 86 % 0 mm
00:12 -19.1 °C -20.2 °C 34740.4 hPa NNW 5.1 km/h 7.7 km/h 86 % 0 mm
00:17 -19.1 °C -20.2 °C 34740.4 hPa NNW 5.1 km/h 7.7 km/h 86 % 0 mm
00:22 -19 °C -20.1 °C 34726.8 hPa North 2.6 km/h 7.7 km/h 86 % 0 mm
00:27 -18.9 °C -20.1 °C 34726.8 hPa NNW 2.6 km/h 7.7 km/h 86 % 0 mm
00:32 -18.8 °C -19.9 °C 34726.8 hPa North 2.6 km/h 7.7 km/h 86 % 0 mm
00:37 -18.8 °C -20 °C 34726.8 hPa North 2.6 km/h 7.7 km/h 85 % 0 mm
00:42 -18.8 °C -20 °C 34726.8 hPa North 2.6 km/h 5.1 km/h 85 % 0 mm
00:47 -18.8 °C -20 °C 34726.8 hPa Calm   5.1 km/h 85 % 0 mm
00:52 -18.9 °C -20.1 °C 34726.8 hPa North 2.6 km/h 2.6 km/h 85 % 0 mm
00:57 -18.9 °C -20.2 °C 34726.8 hPa Calm   2.6 km/h 85 % 0 mm
01:02 -18.9 °C -20.1 °C 34726.8 hPa North 2.6 km/h 2.6 km/h 86 % 0 mm
01:07 -19 °C -20.2 °C 34726.8 hPa Calm   5.1 km/h 85 % 0 mm
01:12 -19.2 °C -20.3 °C 34726.8 hPa Calm   5.1 km/h 86 % 0 mm
01:17 -19.2 °C -20.3 °C 34726.8 hPa Calm   5.1 km/h 86 % 0 mm
01:22 -19.1 °C -20.2 °C 34726.8 hPa NNE 2.6 km/h 2.6 km/h 87 % 0 mm
01:27 -19 °C -20.1 °C 34726.8 hPa NE 2.6 km/h 2.6 km/h 86 % 0 mm
01:32 -19.1 °C -20.2 °C 34726.8 hPa NW 2.6 km/h 2.6 km/h 86 % 0 mm
01:37 -19.1 °C -20.2 °C 34726.8 hPa NW 2.6 km/h 2.6 km/h 86 % 0 mm
01:42 -19.2 °C -20.3 °C 34726.8 hPa Calm   5.1 km/h 86 % 0 mm
01:47 -19.1 °C -20.2 °C 34726.8 hPa NW 2.6 km/h 5.1 km/h 87 % 0 mm
01:52 -19.1 °C -20.1 °C 34716.7 hPa NW 2.6 km/h 5.1 km/h 87 % 0 mm
01:57 -19.4 °C -20.6 °C 34716.7 hPa WNW 5.1 km/h 5.1 km/h 85 % 0 mm
02:02 -19.8 °C -20.8 °C 34716.7 hPa WNW 5.1 km/h 5.1 km/h 87 % 0 mm
02:07 -20.1 °C -21 °C 34716.7 hPa WNW 2.6 km/h 5.1 km/h 88 % 0 mm
02:12 -19.9 °C -20.6 °C 34703.1 hPa Calm   5.1 km/h 91 % 0 mm
02:17 -19.7 °C -20.4 °C 34703.1 hPa Calm   5.1 km/h 90 % 0 mm
02:22 -19.6 °C -20.4 °C 34703.1 hPa Calm   2.6 km/h 89 % 0 mm
02:27 -19.5 °C -20.4 °C 34703.1 hPa Calm   2.6 km/h 89 % 0 mm
02:32 -19.6 °C -20.5 °C 34703.1 hPa NNE 2.6 km/h 2.6 km/h 88 % 0 mm
02:37 -19.6 °C -20.6 °C 34703.1 hPa NNE 5.1 km/h 5.1 km/h 88 % 0 mm
02:42 -19.7 °C -20.6 °C 34703.1 hPa Calm   5.1 km/h 88 % 0 mm
02:47 -19.9 °C -20.9 °C 34703.1 hPa Calm   5.1 km/h 87 % 0 mm
02:52 -19.7 °C -20.5 °C 34716.7 hPa Calm   5.1 km/h 90 % 0 mm
02:57 -19.7 °C -20.6 °C 34716.7 hPa Calm   2.6 km/h 89 % 0 mm
03:02 -19.9 °C -20.8 °C 34716.7 hPa Calm   2.6 km/h 88 % 0 mm
03:07 -20.1 °C -21.1 °C 34703.1 hPa Calm   2.6 km/h 88 % 0 mm
03:12 -20.1 °C -20.9 °C 34703.1 hPa Calm   2.6 km/h 89 % 0 mm
03:17 -20.3 °C -21.2 °C 34703.1 hPa Calm   2.6 km/h 89 % 0 mm
03:22 -20.2 °C -20.8 °C 34703.1 hPa Calm   2.6 km/h 92 % 0 mm
03:27 -20 °C -20.7 °C 34703.1 hPa Calm   2.6 km/h 91 % 0 mm
03:32 -19.8 °C -20.4 °C 34703.1 hPa Calm   2.6 km/h 92 % 0 mm
03:37 -19.9 °C -20.7 °C 34703.1 hPa Calm   2.6 km/h 90 % 0 mm
03:42 -19.9 °C -20.7 °C 34703.1 hPa WNW 2.6 km/h 2.6 km/h 90 % 0 mm
03:47 -20.1 °C -20.7 °C 34703.1 hPa Calm   2.6 km/h 91 % 0 mm
03:52 -19.9 °C -20.6 °C 34703.1 hPa Calm   2.6 km/h 92 % 0 mm
03:57 -19.8 °C -20.4 °C 34703.1 hPa Calm   2.6 km/h 92 % 0 mm
04:02 -19.8 °C -20.4 °C 34703.1 hPa Calm   2.6 km/h 92 % 0 mm
04:07 -19.7 °C -20.3 °C 34703.1 hPa Calm   2.6 km/h 92 % 0 mm
04:17 -19.6 °C -20.3 °C 34703.1 hPa Calm   2.6 km/h 91 % 0 mm
04:22 -19.5 °C -20.3 °C 34703.1 hPa Calm   2.6 km/h 90 % 0 mm
04:27 -19.7 °C -20.6 °C 34703.1 hPa Calm     89 % 0 mm
04:32 -19.7 °C -20.5 °C 34703.1 hPa Calm     90 % 0 mm
04:37 -19.8 °C -20.6 °C 34703.1 hPa Calm     90 % 0 mm
04:42 -20.1 °C -20.9 °C 34703.1 hPa Calm   2.6 km/h 89 % 0 mm
04:47 -20.2 °C -20.8 °C 34703.1 hPa Calm   2.6 km/h 91 % 0 mm
04:52 -20.3 °C -21.1 °C 34703.1 hPa Calm   2.6 km/h 90 % 0 mm
04:57 -20.5 °C -21.3 °C 34703.1 hPa Calm   2.6 km/h 90 % 0 mm
05:02 -20.5 °C -21.1 °C 34703.1 hPa Calm   2.6 km/h 92 % 0 mm
05:12 -20.1 °C -20.7 °C 34693 hPa NW 2.6 km/h   93 % 0 mm
05:17 -19.8 °C -20.4 °C 34693 hPa Calm   2.6 km/h 93 % 0 mm
05:22 -19.8 °C -20.6 °C 34693 hPa North 2.6 km/h 2.6 km/h 91 % 0 mm
05:32 -20.3 °C -21.1 °C 34693 hPa Calm   5.1 km/h 90 % 0 mm
05:37 -20.6 °C -21.3 °C 34693 hPa NNE 2.6 km/h 5.1 km/h 90 % 0 mm
05:42 -20.6 °C -21.2 °C 34693 hPa North 2.6 km/h 5.1 km/h 92 % 0 mm
05:47 -20.5 °C -21.1 °C 34703.1 hPa Calm   5.1 km/h 93 % 0 mm
05:52 -20.5 °C -21.1 °C 34693 hPa Calm   5.1 km/h 92 % 0 mm
05:57 -20.5 °C -21.1 °C 34693 hPa Calm   2.6 km/h 92 % 0 mm
06:02 -20.7 °C -21.3 °C 34693 hPa Calm   2.6 km/h 91 % 0 mm
06:07 -20.7 °C -21.3 °C 34693 hPa Calm   2.6 km/h 92 % 0 mm
06:12 -20.6 °C -21.2 °C 34693 hPa Calm   2.6 km/h 93 % 0 mm
06:17 -20.5 °C -21.1 °C 34693 hPa Calm   2.6 km/h 93 % 0 mm
06:22 -20.3 °C -20.9 °C 34693 hPa Calm   2.6 km/h 93 % 0 mm
06:32 -20.2 °C -20.7 °C 34693 hPa Calm   2.6 km/h 93 % 0 mm
06:42 -20.1 °C -20.9 °C 34693 hPa Calm   5.1 km/h 90 % 0 mm
06:47 -20.2 °C -20.9 °C 34693 hPa North 2.6 km/h 5.1 km/h 91 % 0 mm
06:57 -20.8 °C -21.6 °C 34682.8 hPa North 2.6 km/h 2.6 km/h 90 % 0 mm
07:02 -20.8 °C -21.4 °C 34682.8 hPa NNE 2.6 km/h 2.6 km/h 91 % 0 mm
07:12 -20.6 °C -21.2 °C 34682.8 hPa North 2.6 km/h 2.6 km/h 93 % 0 mm
07:17 -20.4 °C -20.9 °C 34682.8 hPa NNW 2.6 km/h 2.6 km/h 93 % 0 mm
07:22 -20.2 °C -20.8 °C 34682.8 hPa Calm   2.6 km/h 91 % 0 mm
07:32 -19.9 °C -20.9 °C 34682.8 hPa Calm   2.6 km/h 88 % 0 mm
07:37 -19.9 °C -20.9 °C 34682.8 hPa Calm   2.6 km/h 87 % 0 mm
07:42 -20.1 °C -21.1 °C 34682.8 hPa Calm   2.6 km/h 87 % 0 mm
07:47 -20.1 °C -21.1 °C 34682.8 hPa Calm   2.6 km/h 87 % 0 mm
07:52 -20.1 °C -21 °C 34682.8 hPa Calm   2.6 km/h 88 % 0 mm
07:57 -19.9 °C -20.9 °C 34682.8 hPa Calm     87 % 0 mm
08:02 -19.9 °C -21 °C 34682.8 hPa Calm     86 % 0 mm
08:12 -19.8 °C -20.9 °C 34682.8 hPa NW 2.6 km/h 2.6 km/h 86 % 0 mm
08:17 -19.6 °C -20.9 °C 34682.8 hPa Calm   2.6 km/h 84 % 0 mm
08:22 -19.6 °C -20.9 °C 34682.8 hPa Calm   2.6 km/h 83 % 0 mm
08:27 -19.8 °C -21.2 °C 34682.8 hPa Calm   2.6 km/h 83 % 0 mm
08:32 -20.1 °C -21.2 °C 34682.8 hPa North 2.6 km/h 2.6 km/h 86 % 0 mm
08:37 -20.3 °C -21.3 °C 34682.8 hPa Calm   5.1 km/h 87 % 0 mm
08:42 -20.2 °C -21.2 °C 34682.8 hPa NNW 2.6 km/h 5.1 km/h 87 % 0 mm
08:47 -20.1 °C -21.1 °C 34682.8 hPa NNW 2.6 km/h 5.1 km/h 87 % 0 mm
08:52 -19.9 °C -21.1 °C 34682.8 hPa NW 2.6 km/h 5.1 km/h 85 % 0 mm
08:57 -19.9 °C -21.2 °C 34682.8 hPa Calm   7.7 km/h 84 % 0 mm
09:02 -19.9 °C -21.2 °C 34682.8 hPa Calm   7.7 km/h 84 % 0 mm
09:12 -19.6 °C -21 °C 34693 hPa Calm   2.6 km/h 82 % 0 mm
09:17 -19.6 °C -21.2 °C 34682.8 hPa Calm   5.1 km/h 81 % 0 mm
09:22 -19.8 °C -21.3 °C 34693 hPa Calm   5.1 km/h 81 % 0 mm
09:32 -20 °C -21.3 °C 34693 hPa East 2.6 km/h 5.1 km/h 84 % 0 mm
09:37 -20.1 °C -21.2 °C 34693 hPa ENE 2.6 km/h 2.6 km/h 86 % 0 mm
09:42 -20.2 °C -21.2 °C 34693 hPa ENE 2.6 km/h 2.6 km/h 87 % 0 mm
09:47 -20.2 °C -21.2 °C 34693 hPa Calm   5.1 km/h 87 % 0 mm
09:52 -20.1 °C -21.1 °C 34693 hPa Calm   5.1 km/h 87 % 0 mm
10:02 -20 °C -21 °C 34693 hPa Calm   5.1 km/h 87 % 0 mm
10:07 -19.9 °C -20.9 °C 34693 hPa Calm   2.6 km/h 87 % 0 mm
10:12 -19.8 °C -20.9 °C 34693 hPa Calm   2.6 km/h 86 % 0 mm
10:22 -19.6 °C -20.8 °C 34693 hPa Calm   2.6 km/h 85 % 0 mm
10:27 -19.4 °C -20.6 °C 34693 hPa Calm   2.6 km/h 85 % 0 mm
10:32 -19.2 °C -20.4 °C 34693 hPa Calm   2.6 km/h 85 % 0 mm
10:37 -19.2 °C -20.5 °C 34693 hPa Calm   2.6 km/h 84 % 0 mm
10:42 -19.2 °C -20.4 °C 34693 hPa Calm   2.6 km/h 85 % 0 mm
10:52 -18.9 °C -20.1 °C 34693 hPa Calm   2.6 km/h 86 % 0 mm
10:57 -18.7 °C -19.8 °C 34693 hPa Calm     86 % 0 mm
11:02 -18.4 °C -19.7 °C 34693 hPa Calm     85 % 0 mm
11:07 -18.3 °C -19.7 °C 34703.1 hPa Calm     83 % 0 mm
11:12 -18.3 °C -19.8 °C 34703.1 hPa Calm     81 % 0 mm
11:17 -18.2 °C -19.7 °C 34693 hPa Calm   2.6 km/h 82 % 0 mm
11:22 -18.1 °C -19.7 °C 34693 hPa Calm   2.6 km/h 81 % 0 mm
11:27 -17.9 °C -19.6 °C 34693 hPa Calm   2.6 km/h 80 % 0 mm
11:32 -17.8 °C -19.5 °C 34693 hPa Calm   2.6 km/h 80 % 0 mm
11:37 -17.7 °C -19.4 °C 34693 hPa Calm   2.6 km/h 80 % 0 mm
11:42 -17.6 °C -19.3 °C 34693 hPa Calm   2.6 km/h 80 % 0 mm
11:47 -17.6 °C -19.2 °C 34693 hPa Calm   2.6 km/h 80 % 0 mm
11:52 -17.5 °C -19.3 °C 34682.8 hPa Calm   2.6 km/h 79 % 0 mm
12:02 -17.1 °C -19 °C 34682.8 hPa Calm   2.6 km/h 78 % 0 mm
12:07 -16.9 °C -19.1 °C 34682.8 hPa East 2.6 km/h 2.6 km/h 75 % 0 mm
12:12 -16.9 °C -19.4 °C 34682.8 hPa SE 2.6 km/h 5.1 km/h 72 % 0 mm
12:17 -16.8 °C -19 °C 34682.8 hPa Calm   5.1 km/h 75 % 0 mm
12:22 -16.6 °C -19.1 °C 34682.8 hPa East 5.1 km/h 5.1 km/h 72 % 0 mm
12:27 -16.6 °C -19.4 °C 34682.8 hPa East 5.1 km/h 5.1 km/h 69 % 0 mm
12:32 -16.5 °C -19.4 °C 34682.8 hPa East 10.3 km/h 10.3 km/h 68 % 0 mm
12:37 -16.5 °C -19.6 °C 34682.8 hPa ENE 10.3 km/h 10.3 km/h 67 % 0 mm
12:42 -16.5 °C -19.2 °C 34682.8 hPa ENE 7.7 km/h 12.9 km/h 70 % 0 mm
12:47 -16.5 °C -19.4 °C 34682.8 hPa East 7.7 km/h 12.9 km/h 68 % 0 mm
12:52 -16.5 °C -19.2 °C 34682.8 hPa ENE 2.6 km/h 12.9 km/h 70 % 0 mm
12:57 -16.4 °C -19.3 °C 34682.8 hPa East 5.1 km/h 12.9 km/h 69 % 0 mm
13:02 -16.4 °C -19.4 °C 34669.3 hPa ENE 10.3 km/h 12.9 km/h 68 % 0 mm
13:07 -16.4 °C -19.2 °C 34669.3 hPa Calm   12.9 km/h 69 % 0 mm
13:12 -16.3 °C -19.2 °C 34669.3 hPa ENE 7.7 km/h 12.9 km/h 68 % 0 mm
13:17 -16.2 °C -19.3 °C 34669.3 hPa ENE 5.1 km/h 12.9 km/h 67 % 0 mm
13:22 -16.2 °C -19.2 °C 34669.3 hPa NNE 5.1 km/h 12.9 km/h 68 % 0 mm
13:32 -16.2 °C -19.3 °C 34659.1 hPa NE 5.1 km/h 12.9 km/h 66 % 0 mm
13:37 -16.2 °C -19.2 °C 34659.1 hPa NE 5.1 km/h 12.9 km/h 67 % 0 mm
13:42 -16.1 °C -19.2 °C 34659.1 hPa NNE 7.7 km/h 10.3 km/h 66 % 0 mm
13:47 -16 °C -19.2 °C 34659.1 hPa NE 5.1 km/h 15.6 km/h 66 % 0 mm
13:52 -15.9 °C -19 °C 34659.1 hPa NNE 12.9 km/h 15.6 km/h 67 % 0 mm
13:57 -15.8 °C -19.3 °C 34645.6 hPa NNW 2.6 km/h 15.6 km/h 63 % 0 mm
14:02 -15.7 °C -19.2 °C 34645.6 hPa NNE 2.6 km/h 15.6 km/h 64 % 0 mm
14:07 -15.6 °C -19.2 °C 34645.6 hPa North 7.7 km/h 18.2 km/h 63 % 0 mm
14:12 -15.4 °C -19 °C 34645.6 hPa NNW 5.1 km/h 18.2 km/h 63 % 0 mm
14:22 -15.3 °C -19.2 °C 34645.6 hPa NNE 12.9 km/h 20.8 km/h 61 % 0 mm
14:27 -15.2 °C -19.2 °C 34645.6 hPa NNE 10.3 km/h 18.2 km/h 59 % 0 mm
14:32 -15.1 °C -19.6 °C 34645.6 hPa NNE 10.3 km/h 18.2 km/h 56 % 0 mm
14:37 -15.1 °C -19.3 °C 34645.6 hPa NE 12.9 km/h 20.8 km/h 58 % 0 mm
14:42 -14.9 °C -19.2 °C 34645.6 hPa North 15.6 km/h 20.8 km/h 58 % 0 mm
14:47 -14.9 °C -19.4 °C 34645.6 hPa NE 15.6 km/h 23.3 km/h 56 % 0 mm
14:52 -14.8 °C -19.2 °C 34645.6 hPa North 7.7 km/h 23.3 km/h 57 % 0 mm
14:57 -14.8 °C -19.3 °C 34645.6 hPa NE 5.1 km/h 23.3 km/h 56 % 0 mm
15:02 -14.8 °C -19.1 °C 34645.6 hPa NNE 12.9 km/h 23.3 km/h 58 % 0 mm
15:07 -14.8 °C -19.2 °C 34645.6 hPa ENE 5.1 km/h 20.8 km/h 57 % 0 mm
15:12 -14.8 °C -19.4 °C 34645.6 hPa NE 12.9 km/h 20.8 km/h 55 % 0 mm
15:17 -14.8 °C -19.1 °C 34645.6 hPa North 5.1 km/h 15.6 km/h 58 % 0 mm
15:27 -14.8 °C -19.1 °C 34645.6 hPa NE 10.3 km/h 15.6 km/h 57 % 0 mm
15:32 -14.8 °C -19.3 °C 34645.6 hPa WNW 5.1 km/h 15.6 km/h 56 % 0 mm
15:37 -14.9 °C -19.4 °C 34645.6 hPa NNE 7.7 km/h 18.2 km/h 56 % 0 mm
15:42 -15 °C -19.3 °C 34645.6 hPa NNW 2.6 km/h 18.2 km/h 57 % 0 mm
15:47 -15.1 °C -19.4 °C 34645.6 hPa NNW 2.6 km/h 18.2 km/h 57 % 0 mm
15:52 -15.1 °C -19.1 °C 34645.6 hPa Calm   18.2 km/h 59 % 0 mm
16:02 -15.2 °C -19 °C 34659.1 hPa NNE 7.7 km/h 15.6 km/h 61 % 0 mm
16:07 -15.2 °C -18.9 °C 34659.1 hPa North 7.7 km/h 10.3 km/h 62 % 0 mm
16:12 -15.3 °C -19 °C 34659.1 hPa NNW 2.6 km/h 10.3 km/h 62 % 0 mm
16:17 -15.3 °C -18.9 °C 34659.1 hPa Calm   10.3 km/h 63 % 0 mm
16:22 -15.3 °C -18.9 °C 34659.1 hPa North 7.7 km/h 7.7 km/h 63 % 0 mm
16:27 -15.4 °C -18.9 °C 34659.1 hPa NNW 5.1 km/h 12.9 km/h 63 % 0 mm
16:37 -15.6 °C -18.9 °C 34659.1 hPa NNE 7.7 km/h 15.6 km/h 65 % 0 mm
16:42 -15.7 °C -18.9 °C 34659.1 hPa NNW 7.7 km/h 15.6 km/h 66 % 0 mm
16:47 -15.8 °C -18.8 °C 34645.6 hPa North 7.7 km/h 15.6 km/h 68 % 0 mm
16:52 -15.9 °C -18.8 °C 34645.6 hPa NNW 10.3 km/h 15.6 km/h 68 % 0 mm
16:57 -15.9 °C -18.9 °C 34645.6 hPa NNW 2.6 km/h 15.6 km/h 68 % 0 mm
17:02 -15.9 °C -18.9 °C 34645.6 hPa WNW 2.6 km/h 15.6 km/h 68 % 0 mm
17:07 -15.9 °C -19 °C 34659.1 hPa NW 2.6 km/h 12.9 km/h 67 % 0 mm
17:12 -16 °C -19.1 °C 34645.6 hPa NNW 2.6 km/h 5.1 km/h 67 % 0 mm
17:22 -16.3 °C -19 °C 34645.6 hPa North 2.6 km/h 5.1 km/h 70 % 0 mm
17:27 -16.3 °C -19.1 °C 34659.1 hPa NNW 5.1 km/h 5.1 km/h 70 % 0 mm
17:32 -16.3 °C -19.1 °C 34659.1 hPa NNW 2.6 km/h 5.1 km/h 70 % 0 mm
17:37 -16.4 °C -19.1 °C 34659.1 hPa NW 2.6 km/h 10.3 km/h 70 % 0 mm
17:42 -16.5 °C -19 °C 34659.1 hPa NNE 5.1 km/h 10.3 km/h 72 % 0 mm
17:47 -16.6 °C -19.1 °C 34659.1 hPa NNW 2.6 km/h 10.3 km/h 72 % 0 mm
17:52 -16.6 °C -19.2 °C 34669.3 hPa Calm   10.3 km/h 71 % 0 mm
17:57 -16.6 °C -19.2 °C 34669.3 hPa NW 2.6 km/h 7.7 km/h 71 % 0 mm
18:02 -16.6 °C -19.2 °C 34669.3 hPa NW 2.6 km/h 7.7 km/h 71 % 0 mm
18:07 -16.7 °C -19.1 °C 34669.3 hPa NNW 2.6 km/h 5.1 km/h 73 % 0 mm
18:12 -16.7 °C -19.1 °C 34682.8 hPa NNW 5.1 km/h 12.9 km/h 73 % 0 mm
18:17 -16.7 °C -19.3 °C 34682.8 hPa NNW 12.9 km/h 12.9 km/h 71 % 0 mm
18:22 -16.7 °C -19.3 °C 34682.8 hPa NNW 7.7 km/h 15.6 km/h 71 % 0 mm
18:32 -16.7 °C -19.3 °C 34682.8 hPa NNW 15.6 km/h 18.2 km/h 71 % 0 mm
18:37 -16.7 °C -19.3 °C 34682.8 hPa North 12.9 km/h 18.2 km/h 71 % 0 mm
18:42 -16.8 °C -19.3 °C 34682.8 hPa NNW 7.7 km/h 25.9 km/h 72 % 0 mm
18:47 -16.8 °C -19.3 °C 34682.8 hPa NNE 5.1 km/h 25.9 km/h 72 % 0 mm
18:57 -16.9 °C -19.3 °C 34693 hPa Calm   25.9 km/h 73 % 0 mm
19:02 -16.9 °C -19.2 °C 34682.8 hPa Calm   25.9 km/h 74 % 0 mm
19:07 -16.9 °C -19.2 °C 34682.8 hPa North 18.2 km/h 18.2 km/h 74 % 0 mm
19:12 -16.9 °C -19.2 °C 34693 hPa NNW 2.6 km/h 18.2 km/h 74 % 0 mm
19:17 -17 °C -19.3 °C 34693 hPa NNE 7.7 km/h 18.2 km/h 74 % 0 mm
19:22 -17.1 °C -19.2 °C 34693 hPa NNW 5.1 km/h 18.2 km/h 75 % 0 mm
19:27 -17.1 °C -19.2 °C 34693 hPa North 12.9 km/h 15.6 km/h 75 % 0 mm
19:32 -17.1 °C -19.3 °C 34693 hPa North 12.9 km/h 15.6 km/h 75 % 0 mm
19:37 -17.1 °C -19.3 °C 34693 hPa NW 2.6 km/h 20.8 km/h 75 % 0 mm
19:42 -17.1 °C -19.2 °C 34693 hPa North 5.1 km/h 20.8 km/h 76 % 0 mm
19:47 -17.2 °C -19.3 °C 34703.1 hPa NNE 7.7 km/h 20.8 km/h 76 % 0 mm
19:52 -17.2 °C -19.3 °C 34703.1 hPa NNE 10.3 km/h 20.8 km/h 76 % 0 mm
19:57 -17.2 °C -19.3 °C 34703.1 hPa North 15.6 km/h 25.9 km/h 76 % 0 mm
20:02 -17.2 °C -19.3 °C 34703.1 hPa NNW 10.3 km/h 25.9 km/h 76 % 0 mm
20:07 -17.2 °C -19.3 °C 34703.1 hPa NNW 7.7 km/h 25.9 km/h 76 % 0 mm
20:12 -17.2 °C -19.2 °C 34693 hPa NNE 12.9 km/h 25.9 km/h 77 % 0 mm
20:17 -17.3 °C -19.3 °C 34703.1 hPa NNE 12.9 km/h 25.9 km/h 77 % 0 mm
20:22 -17.3 °C -19.3 °C 34693 hPa North 10.3 km/h 25.9 km/h 77 % 0 mm
20:32 -17.3 °C -19.2 °C 34703.1 hPa North 12.9 km/h 23.3 km/h 78 % 0 mm
20:37 -17.4 °C -19.3 °C 34703.1 hPa North 5.1 km/h 20.8 km/h 78 % 0 mm
20:42 -17.4 °C -19.3 °C 34703.1 hPa NNW 15.6 km/h 20.8 km/h 78 % 0 mm
20:47 -17.4 °C -19.3 °C 34703.1 hPa NE 5.1 km/h 20.8 km/h 78 % 0 mm
20:52 -17.4 °C -19.3 °C 34703.1 hPa NNW 2.6 km/h 20.8 km/h 78 % 0 mm
20:57 -17.5 °C -19.3 °C 34703.1 hPa NW 5.1 km/h 20.8 km/h 79 % 0 mm
21:02 -17.6 °C -19.3 °C 34703.1 hPa NE 12.9 km/h 20.8 km/h 79 % 0 mm
21:07 -17.6 °C -19.3 °C 34703.1 hPa NE 10.3 km/h 15.6 km/h 79 % 0 mm
21:12 -17.6 °C -19.4 °C 34703.1 hPa NNW 5.1 km/h 15.6 km/h 79 % 0 mm
21:17 -17.6 °C -19.4 °C 34716.7 hPa North 10.3 km/h 15.6 km/h 79 % 0 mm
21:22 -17.6 °C -19.3 °C 34716.7 hPa North 2.6 km/h 15.6 km/h 80 % 0 mm
21:27 -17.7 °C -19.3 °C 34716.7 hPa North 12.9 km/h 18.2 km/h 80 % 0 mm
21:32 -17.7 °C -19.3 °C 34703.1 hPa North 10.3 km/h 18.2 km/h 81 % 0 mm
21:37 -17.7 °C -19.3 °C 34703.1 hPa NNE 5.1 km/h 15.6 km/h 81 % 0 mm
21:43 -17.7 °C -19.3 °C 34703.1 hPa NE 7.7 km/h 15.6 km/h 81 % 0 mm
21:52 -17.7 °C -19.3 °C 34703.1 hPa North 5.1 km/h 20.8 km/h 81 % 0 mm
21:57 -17.8 °C -19.4 °C 34703.1 hPa NNW 12.9 km/h 20.8 km/h 81 % 0 mm
22:02 -17.8 °C -19.4 °C 34703.1 hPa North 12.9 km/h 20.8 km/h 81 % 0 mm
22:07 -17.8 °C -19.4 °C 34703.1 hPa North 15.6 km/h 20.8 km/h 81 % 0 mm
22:12 -17.8 °C -19.4 °C 34703.1 hPa NNE 15.6 km/h 20.8 km/h 81 % 0 mm
22:17 -17.8 °C -19.4 °C 34703.1 hPa NW 15.6 km/h 23.3 km/h 81 % 0 mm
22:22 -17.8 °C -19.4 °C 34703.1 hPa NNW 7.7 km/h 23.3 km/h 81 % 0 mm
22:27 -17.8 °C -19.4 °C 34703.1 hPa NW 7.7 km/h 20.8 km/h 81 % 0 mm
22:32 -17.8 °C -19.4 °C 34703.1 hPa NW 5.1 km/h 20.8 km/h 81 % 0 mm
22:37 -17.8 °C -19.4 °C 34703.1 hPa NW 7.7 km/h 15.6 km/h 81 % 0 mm
22:42 -17.8 °C -19.4 °C 34716.7 hPa NNW 2.6 km/h 15.6 km/h 81 % 0 mm
22:47 -17.8 °C -19.4 °C 34716.7 hPa NNE 5.1 km/h 12.9 km/h 81 % 0 mm
22:52 -17.8 °C -19.4 °C 34716.7 hPa NNE 5.1 km/h 12.9 km/h 81 % 0 mm
22:57 -17.8 °C -19.4 °C 34716.7 hPa NNW 2.6 km/h 10.3 km/h 81 % 0 mm
23:02 -17.8 °C -19.4 °C 34716.7 hPa Calm   10.3 km/h 81 % 0 mm
23:07 -17.8 °C -19.4 °C 34716.7 hPa NE 2.6 km/h 7.7 km/h 81 % 0 mm
23:12 -17.8 °C -19.4 °C 34716.7 hPa Calm   7.7 km/h 81 % 0 mm
23:17 -17.8 °C -19.4 °C 34726.8 hPa Calm   5.1 km/h 81 % 0 mm
23:22 -17.8 °C -19.4 °C 34726.8 hPa Calm   5.1 km/h 81 % 0 mm
23:27 -17.8 °C -19.4 °C 34726.8 hPa Calm   5.1 km/h 81 % 0 mm
23:32 -17.8 °C -19.4 °C 34726.8 hPa Calm   5.1 km/h 80 % 0 mm
23:37 -17.8 °C -19.4 °C 34726.8 hPa Calm   7.7 km/h 81 % 0 mm
23:42 -17.8 °C -19.4 °C 34726.8 hPa NNE 2.6 km/h 7.7 km/h 81 % 0 mm
23:47 -17.9 °C -19.4 °C 34726.8 hPa NE 7.7 km/h 10.3 km/h 82 % 0 mm
23:52 -17.9 °C -19.4 °C 34726.8 hPa NE 2.6 km/h 10.3 km/h 82 % 0 mm
23:57 -17.9 °C -19.4 °C 34726.8 hPa Calm   10.3 km/h 82 % 0 mm
Meteo18
Compliments of Weather Underground - 4 mb

Script developed by  Jim McMurry - jmcmurry@mwt.net Adapted for the template by  Wim van der Kuil - Leuven-Template.eu

You find our weather info also at:

European Weather Network

Weather Underground

Equipment we use:

Weather-station
Davis Vue

Weather-program
Meteobridge

Weather-server
Raspberry PI 2 B+

Provider
1 and 1

Davis Vue

Meteobridge

Raspberry PI 2 B+

1 and 1